Time;durP1;ratioP1;P1;durP2;ratioP2;P2;SDS_P1;SDS_P2;PMS_P1;PMS_P2;Temp;Humidity;BMP_temperature;BMP_pressure;BME280_temperature;BME280_humidity;BME280_pressure;Samples;Min_cycle;Max_cycle;Signal;HPM_P1;HPM_P2
2022/08/12 00:45:09;;;;;;;8.10;4.90;;;;;;;;;;105529;1303;25197;-28
2022/08/12 00:47:35;;;;;;;4.80;4.10;;;;;;;;;;105607;1296;25266;-30
2022/08/12 00:50:01;;;;;;;8.20;5.80;;;;;;;;;;105564;1296;25207;-26
2022/08/12 00:52:26;;;;;;;5.00;3.50;;;;;;;;;;105646;1299;25267;-29
2022/08/12 00:54:53;;;;;;;6.70;5.10;;;;;;;;;;105581;1299;25200;-24
2022/08/12 00:57:21;;;;;;;9.80;5.20;;;;;;;;;;105565;1299;25219;-25
2022/08/12 00:59:48;;;;;;;8.60;3.80;;;;;;;;;;105606;1296;27899;-28
2022/08/12 01:02:21;;;;;;;4.40;4.00;;;;;;;;;;105578;1298;25244;-28
2022/08/12 01:12:14;;;;;;;7.90;5.20;;;;;;;;;;105579;1299;22520;-25
2022/08/12 01:14:40;;;;;;;6.80;5.60;;;;;;;;;;105561;1299;25254;-28
2022/08/12 01:17:06;;;;;;;5.80;3.10;;;;;;;;;;105560;1299;25327;-29
2022/08/12 01:19:31;;;;;;;6.80;5.00;;;;;;;;;;105612;1296;25910;-30
2022/08/12 01:22:12;;;;;;;6.20;4.00;;;;;;;;;;105521;1296;25197;-26
2022/08/12 01:24:42;;;;;;;6.30;5.10;;;;;;;;;;105609;1299;25197;-28
2022/08/12 01:27:09;;;;;;;6.20;4.10;;;;;;;;;;105617;1296;25289;-28
2022/08/12 01:29:36;;;;;;;5.40;4.30;;;;;;;;;;105658;1299;25237;-24
2022/08/12 01:32:04;;;;;;;7.90;4.30;;;;;;;;;;105651;1299;25318;-28
2022/08/12 01:34:30;;;;;;;5.40;3.50;;;;;;;;;;105512;1296;25283;-24
2022/08/12 01:36:56;;;;;;;4.50;3.40;;;;;;;;;;105614;1299;25313;-25
2022/08/12 01:39:27;;;;;;;8.20;4.90;;;;;;;;;;105552;1296;25268;-28
2022/08/12 01:41:53;;;;;;;6.00;5.00;;;;;;;;;;105586;1299;25196;-30
2022/08/12 01:44:19;;;;;;;6.70;6.00;;;;;;;;;;105613;1299;25292;-24
2022/08/12 01:46:48;;;;;;;7.00;5.60;;;;;;;;;;105605;1296;25236;-23
2022/08/12 01:49:32;;;;;;;6.60;4.80;;;;;;;;;;105428;1298;25385;-29
2022/08/12 01:52:03;;;;;;;6.60;5.40;;;;;;;;;;105592;1303;25244;-25
2022/08/12 01:54:31;;;;;;;5.40;4.90;;;;;;;;;;105631;1296;22499;-24
2022/08/12 01:57:01;;;;;;;7.40;5.70;;;;;;;;;;105553;1303;25181;-28
2022/08/12 02:01:58;;;;;;;6.50;4.90;;;;;;;;;;105597;1296;25199;-26
2022/08/12 02:12:08;;;;;;;5.60;5.10;;;;;;;;;;105662;1296;25320;-27
2022/08/12 02:14:37;;;;;;;5.00;4.00;;;;;;;;;;105643;1299;25197;-24
2022/08/12 02:17:07;;;;;;;5.10;3.80;;;;;;;;;;105437;1304;22499;-28
2022/08/12 02:19:36;;;;;;;5.30;3.80;;;;;;;;;;105636;1298;25322;-27
2022/08/12 02:22:08;;;;;;;8.60;6.40;;;;;;;;;;105549;1286;25197;-25
2022/08/12 02:24:34;;;;;;;6.40;5.20;;;;;;;;;;105536;1296;25237;-28
2022/08/12 02:27:00;;;;;;;4.70;4.00;;;;;;;;;;105635;1303;25369;-27
2022/08/12 02:29:27;;;;;;;6.80;4.00;;;;;;;;;;105633;1296;25235;-28
2022/08/12 02:31:52;;;;;;;4.70;4.20;;;;;;;;;;105578;1296;25196;-23
2022/08/12 02:34:18;;;;;;;4.30;3.90;;;;;;;;;;105503;1296;24913;-25
2022/08/12 02:36:43;;;;;;;4.90;4.10;;;;;;;;;;105585;1296;25446;-30
2022/08/12 02:39:11;;;;;;;6.60;4.50;;;;;;;;;;105625;1303;25197;-26
2022/08/12 02:41:37;;;;;;;3.30;2.90;;;;;;;;;;105558;1296;25243;-24
2022/08/12 02:44:04;;;;;;;5.60;3.50;;;;;;;;;;105553;1296;24501;-25
2022/08/12 02:46:31;;;;;;;6.20;5.50;;;;;;;;;;105623;1299;25197;-25
2022/08/12 02:48:59;;;;;;;3.60;2.90;;;;;;;;;;105599;1298;25229;-28
2022/08/12 02:51:28;;;;;;;7.10;6.00;;;;;;;;;;105590;1299;25241;-24
2022/08/12 02:53:56;;;;;;;5.60;5.10;;;;;;;;;;105543;1299;25238;-28
2022/08/12 02:56:22;;;;;;;7.90;7.00;;;;;;;;;;105411;1299;25395;-24
2022/08/12 02:58:48;;;;;;;9.00;5.00;;;;;;;;;;105666;1296;25197;-28
2022/08/12 03:01:14;;;;;;;7.90;5.80;;;;;;;;;;105556;1299;26513;-27
2022/08/12 03:03:39;;;;;;;5.90;5.40;;;;;;;;;;105563;1303;25605;-30
2022/08/12 03:06:06;;;;;;;6.00;5.40;;;;;;;;;;105613;1298;25274;-28
2022/08/12 03:08:36;;;;;;;5.70;4.40;;;;;;;;;;105542;1296;25196;-23
2022/08/12 03:11:04;;;;;;;11.10;5.50;;;;;;;;;;105568;1295;25225;-24
2022/08/12 03:13:31;;;;;;;10.10;6.00;;;;;;;;;;105422;1298;22928;-27
2022/08/12 03:15:57;;;;;;;14.80;6.50;;;;;;;;;;105579;1296;22453;-24
2022/08/12 03:18:27;;;;;;;6.40;5.30;;;;;;;;;;105545;1296;25152;-24
2022/08/12 03:20:52;;;;;;;11.40;5.80;;;;;;;;;;105622;1299;25280;-29
2022/08/12 03:23:18;;;;;;;8.20;5.30;;;;;;;;;;105561;1299;22522;-28
2022/08/12 03:25:43;;;;;;;6.80;5.20;;;;;;;;;;105620;1296;25226;-23
2022/08/12 03:28:10;;;;;;;7.40;6.60;;;;;;;;;;105592;1298;26497;-27
2022/08/12 03:30:37;;;;;;;5.10;4.10;;;;;;;;;;105626;1299;26520;-25
2022/08/12 03:33:02;;;;;;;8.00;4.90;;;;;;;;;;105646;1303;25244;-27
2022/08/12 03:35:29;;;;;;;7.80;6.70;;;;;;;;;;105604;1303;25237;-30
2022/08/12 03:38:04;;;;;;;6.70;5.60;;;;;;;;;;105580;1296;24264;-24
2022/08/12 04:01:02;;;;;;;8.70;4.60;;;;;;;;;;105398;1303;25235;-24
2022/08/12 04:05:57;;;;;;;13.20;6.20;;;;;;;;;;105650;1283;25177;-26
2022/08/12 04:08:24;;;;;;;7.30;6.00;;;;;;;;;;105553;1296;25194;-28
2022/08/12 04:13:20;;;;;;;5.70;5.00;;;;;;;;;;105580;1302;25247;-30
2022/08/12 04:15:45;;;;;;;9.80;7.70;;;;;;;;;;105590;1299;25238;-25
2022/08/12 04:18:11;;;;;;;7.70;6.60;;;;;;;;;;105528;1299;25337;-25
2022/08/12 04:20:39;;;;;;;6.30;5.70;;;;;;;;;;105449;1304;25229;-28
2022/08/12 04:23:04;;;;;;;6.50;5.50;;;;;;;;;;105620;1303;25344;-26
2022/08/12 04:25:30;;;;;;;4.40;3.60;;;;;;;;;;105572;1296;25225;-24
2022/08/12 04:27:55;;;;;;;5.70;4.50;;;;;;;;;;105518;1296;25213;-24
2022/08/12 04:30:22;;;;;;;7.40;6.70;;;;;;;;;;105423;1303;25197;-25
2022/08/12 04:32:49;;;;;;;7.40;5.40;;;;;;;;;;105646;1296;25237;-29
2022/08/12 04:35:15;;;;;;;4.70;4.10;;;;;;;;;;105620;1302;23764;-27
2022/08/12 04:37:41;;;;;;;7.10;4.80;;;;;;;;;;105578;1299;25352;-24
2022/08/12 04:40:08;;;;;;;4.00;3.20;;;;;;;;;;105599;1299;25676;-28
2022/08/12 04:42:33;;;;;;;7.30;4.10;;;;;;;;;;105583;1299;25219;-30
2022/08/12 04:45:00;;;;;;;9.60;4.30;;;;;;;;;;105536;1303;25436;-30
2022/08/12 04:47:25;;;;;;;5.90;4.30;;;;;;;;;;105528;1303;25238;-30
2022/08/12 04:49:51;;;;;;;7.80;5.50;;;;;;;;;;106823;1296;23241;-30
2022/08/12 04:52:16;;;;;;;4.90;4.20;;;;;;;;;;108865;1296;22256;-25
2022/08/12 04:54:42;;;;;;;4.70;4.30;;;;;;;;;;108531;1296;22508;-28
2022/08/12 04:57:08;;;;;;;6.00;3.40;;;;;;;;;;108837;1296;22548;-28
2022/08/12 04:59:34;;;;;;;3.60;3.10;;;;;;;;;;108702;1297;25191;-28
2022/08/12 05:01:59;;;;;;;4.10;3.00;;;;;;;;;;108806;1303;22090;-28
2022/08/12 05:04:25;;;;;;;6.10;4.30;;;;;;;;;;108842;1296;22998;-29
2022/08/12 05:06:51;;;;;;;8.90;3.50;;;;;;;;;;108871;1296;23018;-25
2022/08/12 05:09:16;;;;;;;5.50;2.00;;;;;;;;;;108765;1296;23141;-25
2022/08/12 05:11:42;;;;;;;3.20;2.50;;;;;;;;;;108755;1295;22531;-25
2022/08/12 05:14:08;;;;;;;3.30;2.40;;;;;;;;;;108879;1303;23168;-25
2022/08/12 05:16:34;;;;;;;3.80;2.80;;;;;;;;;;108659;1304;23145;-29
2022/08/12 05:19:00;;;;;;;4.30;2.60;;;;;;;;;;108810;1303;22523;-25
2022/08/12 05:21:26;;;;;;;2.80;2.00;;;;;;;;;;108662;1296;23279;-28
2022/08/12 05:23:53;;;;;;;3.30;2.30;;;;;;;;;;108781;1303;22540;-25
2022/08/12 05:26:19;;;;;;;4.00;2.40;;;;;;;;;;108897;1296;23133;-29
2022/08/12 05:28:45;;;;;;;2.50;2.20;;;;;;;;;;108887;1295;23024;-29
2022/08/12 05:31:11;;;;;;;3.00;2.60;;;;;;;;;;108661;1297;23319;-28
2022/08/12 05:33:39;;;;;;;3.80;2.50;;;;;;;;;;108862;1295;22548;-25
2022/08/12 05:36:06;;;;;;;6.10;3.20;;;;;;;;;;108859;1295;23542;-29
2022/08/12 05:41:02;;;;;;;19.60;3.40;;;;;;;;;;108767;1296;23196;-30
2022/08/12 05:43:27;;;;;;;3.30;3.00;;;;;;;;;;108873;1296;23093;-30
2022/08/12 05:45:53;;;;;;;4.60;3.10;;;;;;;;;;108846;1296;22553;-30
2022/08/12 05:48:19;;;;;;;4.10;2.90;;;;;;;;;;108943;1295;23193;-26
2022/08/12 05:50:45;;;;;;;3.50;2.70;;;;;;;;;;108746;1303;23056;-27
2022/08/12 05:53:10;;;;;;;5.00;3.20;;;;;;;;;;108218;1284;589203;-30
2022/08/12 05:55:36;;;;;;;3.30;2.90;;;;;;;;;;108868;1296;23181;-28
2022/08/12 05:58:03;;;;;;;5.50;2.70;;;;;;;;;;108897;1296;22983;-24
2022/08/12 06:00:30;;;;;;;3.40;2.50;;;;;;;;;;108812;1303;23023;-24
2022/08/12 06:02:59;;;;;;;3.00;2.50;;;;;;;;;;108882;1296;23209;-24
2022/08/12 06:05:25;;;;;;;6.30;2.80;;;;;;;;;;108780;1296;25306;-25
2022/08/12 06:07:53;;;;;;;2.40;2.20;;;;;;;;;;108843;1303;23292;-28
2022/08/12 06:10:18;;;;;;;3.10;2.00;;;;;;;;;;108885;1296;22350;-28
2022/08/12 06:12:47;;;;;;;3.30;2.20;;;;;;;;;;108835;1303;22562;-28
2022/08/12 06:15:15;;;;;;;5.90;1.90;;;;;;;;;;108854;1296;22510;-28
2022/08/12 06:17:41;;;;;;;2.40;2.10;;;;;;;;;;108662;1298;22542;-28
2022/08/12 06:20:12;;;;;;;6.10;1.40;;;;;;;;;;108883;1296;23178;-24
2022/08/12 06:22:38;;;;;;;1.30;1.20;;;;;;;;;;108836;1303;23202;-24
2022/08/12 06:25:04;;;;;;;1.30;1.00;;;;;;;;;;108801;1296;22979;-24
2022/08/12 06:27:29;;;;;;;1.50;0.90;;;;;;;;;;108850;1303;22599;-28
2022/08/12 06:29:55;;;;;;;1.50;0.90;;;;;;;;;;108802;1296;23210;-28
2022/08/12 06:32:20;;;;;;;1.40;0.90;;;;;;;;;;108843;1296;22360;-28
2022/08/12 06:34:47;;;;;;;4.10;0.80;;;;;;;;;;108887;1296;22951;-28
2022/08/12 06:37:12;;;;;;;1.20;1.00;;;;;;;;;;108722;1297;23286;-28
2022/08/12 06:39:38;;;;;;;4.10;1.10;;;;;;;;;;108885;1296;23188;-29
2022/08/12 06:44:32;;;;;;;6.30;1.20;;;;;;;;;;108857;1303;23189;-24
2022/08/12 06:46:57;;;;;;;2.30;1.20;;;;;;;;;;108677;1303;22691;-24
2022/08/12 06:49:23;;;;;;;1.20;0.90;;;;;;;;;;108904;1296;23757;-24
2022/08/12 06:51:48;;;;;;;5.30;1.00;;;;;;;;;;108871;1296;22446;-24
2022/08/12 06:54:15;;;;;;;1.10;0.90;;;;;;;;;;108756;1296;22543;-28
2022/08/12 06:56:41;;;;;;;1.10;0.90;;;;;;;;;;108673;1298;22535;-25
2022/08/12 06:59:06;;;;;;;1.60;1.10;;;;;;;;;;108832;1296;23335;-24
2022/08/12 07:01:32;;;;;;;1.10;0.80;;;;;;;;;;108840;1296;23048;-25
2022/08/12 07:03:57;;;;;;;1.20;1.10;;;;;;;;;;108867;1296;22563;-24
2022/08/12 07:06:24;;;;;;;3.40;0.80;;;;;;;;;;108904;1303;22275;-25
2022/08/12 07:08:49;;;;;;;0.80;0.70;;;;;;;;;;108643;1296;23125;-27
2022/08/12 07:11:15;;;;;;;1.40;0.80;;;;;;;;;;108875;1295;23240;-24
2022/08/12 07:13:42;;;;;;;1.40;1.00;;;;;;;;;;108832;1303;22525;-28
2022/08/12 07:16:08;;;;;;;2.10;1.20;;;;;;;;;;108864;1295;22394;-28
2022/08/12 07:18:34;;;;;;;2.90;1.10;;;;;;;;;;108903;1296;22396;-24
2022/08/12 07:21:01;;;;;;;1.00;0.80;;;;;;;;;;108892;1296;22527;-28
2022/08/12 07:23:27;;;;;;;3.80;1.10;;;;;;;;;;108839;1296;22553;-28
2022/08/12 07:25:52;;;;;;;1.30;1.00;;;;;;;;;;108636;1296;23161;-24
2022/08/12 07:28:19;;;;;;;7.50;1.50;;;;;;;;;;108894;1283;22533;-24
2022/08/12 07:30:47;;;;;;;5.40;1.50;;;;;;;;;;108861;1303;22605;-24
2022/08/12 07:33:12;;;;;;;0.90;0.80;;;;;;;;;;108851;1295;23215;-28
2022/08/12 07:35:44;;;;;;;6.20;1.80;;;;;;;;;;108832;1303;22577;-28
2022/08/12 07:38:14;;;;;;;3.40;1.40;;;;;;;;;;108861;1296;23391;-28
2022/08/12 07:40:39;;;;;;;1.50;1.20;;;;;;;;;;108726;1295;23246;-24
2022/08/12 07:43:05;;;;;;;1.50;1.20;;;;;;;;;;108791;1296;23425;-24
2022/08/12 07:45:31;;;;;;;3.60;1.50;;;;;;;;;;108887;1280;22864;-24
2022/08/12 07:47:57;;;;;;;8.50;1.00;;;;;;;;;;108848;1303;22424;-28
2022/08/12 07:50:23;;;;;;;0.90;0.70;;;;;;;;;;108628;1296;23237;-28
2022/08/12 07:52:48;;;;;;;3.10;1.20;;;;;;;;;;108671;1298;23561;-24
2022/08/12 07:55:14;;;;;;;2.00;1.70;;;;;;;;;;108865;1296;22586;-24
2022/08/12 07:57:43;;;;;;;0.70;0.60;;;;;;;;;;108846;1296;22524;-24
2022/08/12 08:00:09;;;;;;;2.30;1.40;;;;;;;;;;108716;1296;25189;-24
2022/08/12 08:02:35;;;;;;;4.60;1.10;;;;;;;;;;108720;1303;23257;-28
2022/08/12 08:05:01;;;;;;;3.00;1.10;;;;;;;;;;108857;1282;22544;-28
2022/08/12 08:07:28;;;;;;;3.10;1.10;;;;;;;;;;108847;1296;22936;-28
2022/08/12 08:09:56;;;;;;;1.60;0.80;;;;;;;;;;108878;1296;23214;-25
2022/08/12 08:14:54;;;;;;;1.70;1.10;;;;;;;;;;108922;1296;22609;-28
2022/08/12 08:17:20;;;;;;;1.50;0.70;;;;;;;;;;108715;1299;22408;-28
2022/08/12 08:19:51;;;;;;;0.60;0.60;;;;;;;;;;108852;1303;22536;-24
2022/08/12 08:22:18;;;;;;;2.20;0.70;;;;;;;;;;108538;1302;22564;-28
2022/08/12 08:24:44;;;;;;;1.00;0.80;;;;;;;;;;108583;1303;23161;-24
2022/08/12 08:27:09;;;;;;;1.30;0.90;;;;;;;;;;108802;1295;22541;-28
2022/08/12 08:29:35;;;;;;;2.30;1.70;;;;;;;;;;108787;1296;23123;-28
2022/08/12 08:32:03;;;;;;;1.00;0.70;;;;;;;;;;108798;1296;22399;-24
2022/08/12 08:34:30;;;;;;;0.80;0.60;;;;;;;;;;108866;1295;22492;-28
2022/08/12 08:36:57;;;;;;;7.80;1.10;;;;;;;;;;108826;1303;22941;-28
2022/08/12 08:39:26;;;;;;;2.50;1.00;;;;;;;;;;108866;1296;22532;-24
2022/08/12 08:44:21;;;;;;;1.20;1.10;;;;;;;;;;108481;1296;23300;-24
2022/08/12 08:46:48;;;;;;;2.60;1.90;;;;;;;;;;108866;1296;22252;-24
2022/08/12 08:49:14;;;;;;;4.70;0.90;;;;;;;;;;108877;1295;23248;-28
2022/08/12 08:51:40;;;;;;;2.80;1.10;;;;;;;;;;107656;1296;22545;-28
2022/08/12 08:54:05;;;;;;;1.20;0.90;;;;;;;;;;108654;1296;23252;-28
2022/08/12 08:56:31;;;;;;;2.20;1.30;;;;;;;;;;108725;1298;22561;-28
2022/08/12 08:58:57;;;;;;;2.90;1.00;;;;;;;;;;108291;1295;25423;-28
2022/08/12 09:01:22;;;;;;;0.90;0.70;;;;;;;;;;108661;1298;22402;-28
2022/08/12 09:03:48;;;;;;;1.20;0.70;;;;;;;;;;108826;1303;23376;-24
2022/08/12 09:06:14;;;;;;;6.70;1.20;;;;;;;;;;108828;1296;25200;-24
2022/08/12 09:08:41;;;;;;;2.70;0.90;;;;;;;;;;108843;1296;22557;-24
2022/08/12 09:13:37;;;;;;;1.20;1.10;;;;;;;;;;108883;1296;22533;-28
2022/08/12 09:16:04;;;;;;;1.70;0.90;;;;;;;;;;108615;1297;22503;-28
2022/08/12 09:18:30;;;;;;;4.20;1.00;;;;;;;;;;108852;1296;22326;-25
2022/08/12 09:20:56;;;;;;;2.40;1.20;;;;;;;;;;108890;1296;22810;-27
2022/08/12 09:23:22;;;;;;;5.10;2.50;;;;;;;;;;108874;1282;23291;-28
2022/08/12 09:25:47;;;;;;;2.10;1.90;;;;;;;;;;108892;1303;22400;-28
2022/08/12 09:28:13;;;;;;;8.70;0.70;;;;;;;;;;108871;1296;22555;-28
2022/08/12 09:30:43;;;;;;;4.00;0.60;;;;;;;;;;108854;1303;22076;-25
2022/08/12 09:33:08;;;;;;;1.30;1.10;;;;;;;;;;108840;1298;22968;-28
2022/08/12 09:35:36;;;;;;;2.50;0.80;;;;;;;;;;108876;1296;22581;-29
2022/08/12 09:38:02;;;;;;;0.60;0.60;;;;;;;;;;108834;1296;22524;-29
2022/08/12 09:40:28;;;;;;;1.80;1.00;;;;;;;;;;108814;1303;22763;-25
2022/08/12 09:45:23;;;;;;;3.40;0.90;;;;;;;;;;108852;1296;22444;-25
2022/08/12 09:47:49;;;;;;;0.90;0.80;;;;;;;;;;108903;1295;22431;-28
2022/08/12 09:50:15;;;;;;;1.10;1.00;;;;;;;;;;108720;1295;22712;-28
2022/08/12 09:52:44;;;;;;;0.80;0.60;;;;;;;;;;108772;1296;22407;-28
2022/08/12 09:55:10;;;;;;;4.30;1.10;;;;;;;;;;108898;1295;23028;-29
2022/08/12 09:57:36;;;;;;;7.80;0.80;;;;;;;;;;108870;1296;22576;-25
2022/08/12 10:00:03;;;;;;;3.10;1.40;;;;;;;;;;108870;1296;22328;-25
2022/08/12 10:02:28;;;;;;;1.20;0.70;;;;;;;;;;108875;1296;23384;-29
2022/08/12 10:04:59;;;;;;;3.40;2.00;;;;;;;;;;108130;1303;25198;-25
2022/08/12 10:07:25;;;;;;;10.80;6.80;;;;;;;;;;108394;1296;23088;-25
2022/08/12 10:09:50;;;;;;;9.60;7.10;;;;;;;;;;108855;1296;22560;-25
2022/08/12 10:14:44;;;;;;;1.80;1.00;;;;;;;;;;108854;1296;23143;-25
2022/08/12 10:17:10;;;;;;;1.10;1.00;;;;;;;;;;108895;1295;23372;-29
2022/08/12 10:19:36;;;;;;;0.70;0.50;;;;;;;;;;108754;1296;23193;-26
2022/08/12 10:22:04;;;;;;;1.90;1.00;;;;;;;;;;108904;1296;22554;-29
2022/08/12 10:24:30;;;;;;;1.90;1.10;;;;;;;;;;108712;1296;23187;-25
2022/08/12 10:31:54;;;;;;;2.00;1.30;;;;;;;;;;108892;1296;22512;-24
2022/08/12 10:34:21;;;;;;;1.90;0.80;;;;;;;;;;108815;1303;22534;-29
2022/08/12 10:36:48;;;;;;;24.20;19.90;;;;;;;;;;108875;1295;22473;-25
2022/08/12 10:39:14;;;;;;;1.30;0.80;;;;;;;;;;108869;1296;23296;-25
2022/08/12 10:44:11;;;;;;;1.50;0.90;;;;;;;;;;108676;1296;22534;-29
2022/08/12 10:46:37;;;;;;;1.50;0.90;;;;;;;;;;108621;1296;22886;-24
2022/08/12 10:49:02;;;;;;;4.40;3.60;;;;;;;;;;108702;1296;22513;-27
2022/08/12 10:51:29;;;;;;;1.00;1.00;;;;;;;;;;108794;1296;23820;-28
2022/08/12 10:53:55;;;;;;;0.80;0.80;;;;;;;;;;108867;1296;22520;-28
2022/08/12 10:56:21;;;;;;;2.70;1.40;;;;;;;;;;108754;1296;22348;-24
2022/08/12 10:58:47;;;;;;;1.00;0.90;;;;;;;;;;108827;1296;23117;-28
2022/08/12 11:01:12;;;;;;;6.10;5.60;;;;;;;;;;108700;1296;22520;-24
2022/08/12 11:03:40;;;;;;;1.10;0.70;;;;;;;;;;108690;1297;23225;-24
2022/08/12 11:06:06;;;;;;;2.40;1.50;;;;;;;;;;108894;1296;22389;-27
2022/08/12 11:08:32;;;;;;;4.50;1.60;;;;;;;;;;108861;1303;22527;-28
2022/08/12 11:10:57;;;;;;;2.00;1.80;;;;;;;;;;108765;1295;23229;-24
2022/08/12 11:13:23;;;;;;;1.80;1.30;;;;;;;;;;108645;1297;22402;-28
2022/08/12 11:15:49;;;;;;;4.00;2.60;;;;;;;;;;108745;1296;23074;-28
2022/08/12 11:18:14;;;;;;;0.90;0.70;;;;;;;;;;108892;1296;22302;-25
2022/08/12 11:20:40;;;;;;;4.20;1.10;;;;;;;;;;108876;1303;22687;-27
2022/08/12 11:23:05;;;;;;;1.00;0.90;;;;;;;;;;108503;1303;23135;-28
2022/08/12 11:25:31;;;;;;;1.70;0.60;;;;;;;;;;108846;1296;23286;-28
2022/08/12 11:27:56;;;;;;;8.70;1.70;;;;;;;;;;108861;1296;22795;-28
2022/08/12 11:30:22;;;;;;;3.20;1.30;;;;;;;;;;108770;1297;23697;-25
2022/08/12 11:32:47;;;;;;;0.60;0.60;;;;;;;;;;108904;1295;23209;-25
2022/08/12 11:35:12;;;;;;;1.80;1.50;;;;;;;;;;108760;1297;22437;-28
2022/08/12 11:37:39;;;;;;;9.60;8.90;;;;;;;;;;108722;1297;23036;-28
2022/08/12 11:40:05;;;;;;;1.00;0.90;;;;;;;;;;108858;1295;23006;-25
2022/08/12 11:42:31;;;;;;;1.30;0.90;;;;;;;;;;108892;1296;22574;-24
2022/08/12 11:44:56;;;;;;;3.70;1.60;;;;;;;;;;108726;1303;22519;-27
2022/08/12 11:47:22;;;;;;;4.40;4.10;;;;;;;;;;108883;1296;23012;-24
2022/08/12 11:49:50;;;;;;;5.90;2.90;;;;;;;;;;108832;1296;25251;-24
2022/08/12 11:52:15;;;;;;;2.90;0.60;;;;;;;;;;108817;1296;22676;-27
2022/08/12 11:54:41;;;;;;;1.20;0.80;;;;;;;;;;108907;1295;22684;-24
2022/08/12 11:57:06;;;;;;;2.40;0.80;;;;;;;;;;108793;1296;23042;-28
2022/08/12 11:59:32;;;;;;;1.40;1.30;;;;;;;;;;108696;1296;22517;-27
2022/08/12 12:01:57;;;;;;;1.30;0.80;;;;;;;;;;108876;1295;23145;-24
2022/08/12 12:04:23;;;;;;;0.70;0.70;;;;;;;;;;108910;1296;22413;-24
2022/08/12 12:06:48;;;;;;;1.30;0.90;;;;;;;;;;108841;1296;22543;-24
2022/08/12 12:09:14;;;;;;;1.50;1.30;;;;;;;;;;108782;1296;22457;-28
2022/08/12 12:11:42;;;;;;;0.70;0.50;;;;;;;;;;108865;1296;22532;-24
2022/08/12 12:14:07;;;;;;;2.70;0.90;;;;;;;;;;108906;1296;23683;-24
2022/08/12 12:16:33;;;;;;;2.50;1.30;;;;;;;;;;108524;1291;22520;-27
2022/08/12 12:18:58;;;;;;;2.20;0.80;;;;;;;;;;108811;1296;23343;-27
2022/08/12 12:21:24;;;;;;;5.80;0.60;;;;;;;;;;108902;1296;22421;-24
2022/08/12 12:23:49;;;;;;;1.60;1.00;;;;;;;;;;108874;1296;22523;-28
2022/08/12 12:26:15;;;;;;;0.70;0.60;;;;;;;;;;108806;1296;22853;-24
2022/08/12 12:28:41;;;;;;;1.00;0.80;;;;;;;;;;108883;1296;22338;-28
2022/08/12 12:31:06;;;;;;;1.70;1.50;;;;;;;;;;108828;1296;22527;-28
2022/08/12 12:33:32;;;;;;;2.30;1.90;;;;;;;;;;108840;1296;22537;-24
2022/08/12 12:35:57;;;;;;;2.00;0.80;;;;;;;;;;108883;1296;22270;-24
2022/08/12 12:38:23;;;;;;;3.30;1.30;;;;;;;;;;108621;1303;23122;-28
2022/08/12 12:40:49;;;;;;;1.50;0.50;;;;;;;;;;108710;1296;22966;-28
2022/08/12 12:43:15;;;;;;;3.30;2.40;;;;;;;;;;108877;1282;22562;-24
2022/08/12 12:45:41;;;;;;;0.60;0.60;;;;;;;;;;108600;1303;23192;-27
2022/08/12 12:48:08;;;;;;;12.10;11.20;;;;;;;;;;107708;1303;22528;-24
2022/08/12 12:50:35;;;;;;;6.10;5.60;;;;;;;;;;108737;1303;23230;-28
2022/08/12 12:53:00;;;;;;;3.70;3.50;;;;;;;;;;108879;1296;22423;-28
2022/08/12 12:55:25;;;;;;;0.90;0.50;;;;;;;;;;108867;1295;22581;-24
2022/08/12 12:57:51;;;;;;;4.60;1.00;;;;;;;;;;108842;1296;23360;-24
2022/08/12 13:00:17;;;;;;;1.00;0.90;;;;;;;;;;108826;1303;22535;-26
2022/08/12 13:02:49;;;;;;;1.50;0.70;;;;;;;;;;108853;1303;22436;-24
2022/08/12 13:05:16;;;;;;;3.50;0.70;;;;;;;;;;108843;1296;23334;-28
2022/08/12 13:07:42;;;;;;;0.60;0.60;;;;;;;;;;108577;1296;25212;-25
2022/08/12 13:10:08;;;;;;;0.70;0.60;;;;;;;;;;108714;1299;23116;-28
2022/08/12 13:12:33;;;;;;;0.60;0.50;;;;;;;;;;108861;1296;23615;-28
2022/08/12 13:15:02;;;;;;;6.70;5.40;;;;;;;;;;108880;1295;22394;-27
2022/08/12 13:17:30;;;;;;;1.10;0.80;;;;;;;;;;108501;1303;22523;-27
2022/08/12 13:20:00;;;;;;;3.80;0.90;;;;;;;;;;108765;1296;23095;-24
2022/08/12 13:22:26;;;;;;;2.10;1.70;;;;;;;;;;108911;1299;22406;-24
2022/08/12 13:24:53;;;;;;;1.10;0.70;;;;;;;;;;108702;1303;22527;-28
2022/08/12 13:27:19;;;;;;;1.10;1.00;;;;;;;;;;108823;1296;22512;-27
2022/08/12 13:29:45;;;;;;;1.30;0.80;;;;;;;;;;108835;1296;23001;-24
2022/08/12 13:32:11;;;;;;;1.30;0.70;;;;;;;;;;108403;1295;22516;-24
2022/08/12 13:34:37;;;;;;;1.20;0.70;;;;;;;;;;108815;1303;22538;-24
2022/08/12 13:37:03;;;;;;;14.60;13.30;;;;;;;;;;108836;1303;22522;-28
2022/08/12 13:39:29;;;;;;;3.30;2.40;;;;;;;;;;108782;1296;22421;-28
2022/08/12 13:41:55;;;;;;;12.40;7.30;;;;;;;;;;108891;1303;23267;-28
2022/08/12 13:44:21;;;;;;;25.90;20.90;;;;;;;;;;108728;1297;22534;-24
2022/08/12 13:46:47;;;;;;;18.00;12.50;;;;;;;;;;108800;1303;22530;-28
2022/08/12 13:49:14;;;;;;;4.90;4.60;;;;;;;;;;108860;1295;22522;-28
2022/08/12 13:51:41;;;;;;;1.10;0.80;;;;;;;;;;108497;1296;512915;-28
2022/08/12 13:54:07;;;;;;;1.40;0.80;;;;;;;;;;108584;1296;23364;-24
2022/08/12 13:56:33;;;;;;;0.60;0.60;;;;;;;;;;108890;1296;25155;-24
2022/08/12 13:59:00;;;;;;;6.70;0.70;;;;;;;;;;108779;1296;23165;-24
2022/08/12 14:01:26;;;;;;;0.60;0.50;;;;;;;;;;108857;1296;22529;-28
2022/08/12 14:03:52;;;;;;;1.00;0.70;;;;;;;;;;108862;1296;23095;-27
2022/08/12 14:06:18;;;;;;;2.10;0.90;;;;;;;;;;108898;1296;22415;-24
2022/08/12 14:08:43;;;;;;;13.80;1.20;;;;;;;;;;108877;1296;23397;-24
2022/08/12 14:11:09;;;;;;;24.80;18.50;;;;;;;;;;108863;1296;23447;-28
2022/08/12 14:13:37;;;;;;;3.10;1.10;;;;;;;;;;108867;1296;23289;-24
2022/08/12 14:16:03;;;;;;;3.00;2.20;;;;;;;;;;108877;1303;22532;-28
2022/08/12 14:18:29;;;;;;;0.60;0.60;;;;;;;;;;108772;1296;22598;-24
2022/08/12 14:20:57;;;;;;;0.70;0.60;;;;;;;;;;108825;1303;22515;-24
2022/08/12 14:23:24;;;;;;;0.80;0.70;;;;;;;;;;108676;1296;23083;-28
2022/08/12 14:25:50;;;;;;;1.80;1.60;;;;;;;;;;108917;1296;22536;-28
2022/08/12 14:28:16;;;;;;;1.80;1.10;;;;;;;;;;108731;1296;23234;-28
2022/08/12 14:30:45;;;;;;;1.70;1.10;;;;;;;;;;108880;1296;22392;-24
2022/08/12 14:33:12;;;;;;;0.90;0.70;;;;;;;;;;108808;1295;23374;-24
2022/08/12 14:35:37;;;;;;;1.10;0.70;;;;;;;;;;108817;1303;22536;-24
2022/08/12 14:38:06;;;;;;;0.90;0.70;;;;;;;;;;108870;1296;23308;-28
2022/08/12 14:40:32;;;;;;;6.50;5.60;;;;;;;;;;108882;1289;22551;-28
2022/08/12 14:42:58;;;;;;;4.00;3.20;;;;;;;;;;108843;1303;22439;-28
2022/08/12 14:45:24;;;;;;;2.00;1.80;;;;;;;;;;108614;1297;23078;-28
2022/08/12 14:47:53;;;;;;;2.90;2.60;;;;;;;;;;108718;1282;25212;-27
2022/08/12 14:50:19;;;;;;;3.70;0.80;;;;;;;;;;108732;1296;22583;-24
2022/08/12 14:52:45;;;;;;;1.60;0.90;;;;;;;;;;108797;1295;22545;-23
2022/08/12 14:55:13;;;;;;;1.20;1.00;;;;;;;;;;108689;1296;23202;-27
2022/08/12 14:57:42;;;;;;;3.70;0.90;;;;;;;;;;108765;1296;23162;-27
2022/08/12 15:02:36;;;;;;;0.90;0.60;;;;;;;;;;108731;1296;23316;-24
2022/08/12 15:05:03;;;;;;;2.80;0.70;;;;;;;;;;108892;1295;23308;-24
2022/08/12 15:07:28;;;;;;;1.80;1.40;;;;;;;;;;108874;1295;23628;-24
2022/08/12 15:09:55;;;;;;;3.70;2.20;;;;;;;;;;108863;1296;23912;-27
2022/08/12 15:12:20;;;;;;;3.80;3.30;;;;;;;;;;108832;1296;22740;-24
2022/08/12 15:14:46;;;;;;;2.30;1.50;;;;;;;;;;108845;1296;22690;-24
2022/08/12 15:17:11;;;;;;;0.90;0.70;;;;;;;;;;108847;1295;23369;-24
2022/08/12 15:19:37;;;;;;;2.30;1.00;;;;;;;;;;108794;1296;22558;-27
2022/08/12 15:22:02;;;;;;;1.00;0.90;;;;;;;;;;108307;1303;22969;-27
2022/08/12 15:24:28;;;;;;;1.50;1.20;;;;;;;;;;108641;1296;23196;-23
2022/08/12 15:26:57;;;;;;;1.60;1.30;;;;;;;;;;108837;1295;23374;-24
2022/08/12 15:29:24;;;;;;;1.10;0.80;;;;;;;;;;108883;1296;23099;-27
2022/08/12 15:31:49;;;;;;;0.90;0.80;;;;;;;;;;108579;1303;22576;-24
2022/08/12 15:34:14;;;;;;;5.80;0.70;;;;;;;;;;108681;1296;23285;-24
2022/08/12 15:36:40;;;;;;;2.00;0.90;;;;;;;;;;108804;1303;22651;-27
2022/08/12 15:39:08;;;;;;;1.20;1.00;;;;;;;;;;108699;1296;23214;-24
2022/08/12 15:41:33;;;;;;;4.70;1.30;;;;;;;;;;108658;1297;23677;-27
2022/08/12 15:44:00;;;;;;;1.40;1.10;;;;;;;;;;108775;1303;23208;-27
2022/08/12 15:46:26;;;;;;;2.60;1.10;;;;;;;;;;108846;1296;22421;-24
2022/08/12 15:48:52;;;;;;;0.60;0.60;;;;;;;;;;108836;1296;22533;-24
2022/08/12 15:51:21;;;;;;;3.10;1.40;;;;;;;;;;108839;1303;22531;-24
2022/08/12 15:56:15;;;;;;;4.50;1.50;;;;;;;;;;108448;1296;22523;-29
2022/08/12 15:58:40;;;;;;;1.20;1.10;;;;;;;;;;108866;1296;22956;-29
2022/08/12 16:01:10;;;;;;;1.60;1.50;;;;;;;;;;108854;1296;22540;-25
2022/08/12 16:03:35;;;;;;;1.80;1.50;;;;;;;;;;108790;1296;22533;-25
2022/08/12 16:06:01;;;;;;;3.80;1.40;;;;;;;;;;108855;1283;23003;-29
2022/08/12 16:08:28;;;;;;;2.00;0.90;;;;;;;;;;108693;1296;23168;-29
2022/08/12 16:10:55;;;;;;;4.20;1.40;;;;;;;;;;108866;1296;23235;-29
2022/08/12 16:13:21;;;;;;;3.60;0.90;;;;;;;;;;108755;1296;22530;-25
2022/08/12 16:15:46;;;;;;;1.30;1.20;;;;;;;;;;108607;1296;23305;-29
2022/08/12 16:18:13;;;;;;;2.20;2.10;;;;;;;;;;108888;1295;23057;-25
2022/08/12 16:20:38;;;;;;;2.20;1.70;;;;;;;;;;108790;1296;22534;-26